createdAt,value
2024-03-06T00:02:08.665Z,7.35
2024-03-06T00:04:36.358Z,7.44
2024-03-06T00:07:03.154Z,7.54
2024-03-06T00:09:30.097Z,7.47
2024-03-06T00:11:58.593Z,7.24
2024-03-06T00:14:25.595Z,7.40
2024-03-06T00:16:52.783Z,7.28
2024-03-06T00:19:20.222Z,7.26
2024-03-06T00:21:47.133Z,7.27
2024-03-06T00:24:16.962Z,7.27
2024-03-06T00:26:45.619Z,7.32
2024-03-06T00:29:12.836Z,7.33
2024-03-06T00:31:44.495Z,7.27
2024-03-06T00:34:12.655Z,7.28
2024-03-06T00:36:39.659Z,7.33
2024-03-06T00:39:06.398Z,7.21
2024-03-06T00:41:33.177Z,7.09
2024-03-06T00:44:00.036Z,7.11
2024-03-06T00:46:26.958Z,7.13
2024-03-06T00:48:53.909Z,7.24
2024-03-06T00:51:26.888Z,7.11
2024-03-06T00:53:59.688Z,7.05
2024-03-06T00:56:26.741Z,7.25
2024-03-06T00:58:53.535Z,7.22
2024-03-06T01:01:20.519Z,7.14
2024-03-06T01:03:47.284Z,7.07
2024-03-06T01:06:14.072Z,7.14
2024-03-06T01:08:40.802Z,6.99
2024-03-06T01:11:07.967Z,7.05
2024-03-06T01:13:34.809Z,6.87
2024-03-06T01:16:01.582Z,6.84
2024-03-06T01:18:28.354Z,7.02
2024-03-06T01:20:55.274Z,7.12
2024-03-06T01:23:22.000Z,7.09
2024-03-06T01:25:48.765Z,7.15
2024-03-06T01:28:15.578Z,7.11
2024-03-06T01:30:42.292Z,7.13
2024-03-06T01:33:09.058Z,7.15
2024-03-06T01:35:35.828Z,7.03
2024-03-06T01:38:02.855Z,7.05
2024-03-06T01:40:30.722Z,6.99
2024-03-06T01:42:57.671Z,6.95
2024-03-06T01:45:24.398Z,7.15
2024-03-06T01:47:52.044Z,7.26
2024-03-06T01:50:19.580Z,7.29
2024-03-06T01:52:47.448Z,7.24
2024-03-06T01:55:15.196Z,7.18
2024-03-06T01:57:42.696Z,7.02
2024-03-06T02:00:15.078Z,7.02
2024-03-06T02:02:43.470Z,7.03
2024-03-06T02:05:10.844Z,7.01
2024-03-06T02:07:40.691Z,7.11
2024-03-06T02:10:11.095Z,7.13
2024-03-06T02:12:38.342Z,7.20
2024-03-06T02:15:05.936Z,7.24
2024-03-06T02:17:32.728Z,7.32
2024-03-06T02:19:59.905Z,7.26
2024-03-06T02:22:26.634Z,7.15
2024-03-06T02:24:53.353Z,7.09
2024-03-06T02:27:20.092Z,7.08
2024-03-06T02:29:46.801Z,6.98
2024-03-06T02:32:15.485Z,6.93
2024-03-06T02:34:42.473Z,6.83
2024-03-06T02:37:09.262Z,6.96
2024-03-06T02:39:36.050Z,6.85
2024-03-06T02:42:02.995Z,6.79
2024-03-06T02:44:29.699Z,6.74
2024-03-06T02:46:56.821Z,6.74
2024-03-06T02:49:23.525Z,6.74
2024-03-06T02:51:50.257Z,6.69
2024-03-06T02:54:17.058Z,6.71
2024-03-06T02:56:43.948Z,6.88
2024-03-06T02:59:10.792Z,6.71
2024-03-06T03:01:37.719Z,6.71
2024-03-06T03:04:04.587Z,6.52
2024-03-06T03:06:31.390Z,6.59
2024-03-06T03:08:58.176Z,6.58
2024-03-06T03:11:24.897Z,6.63
2024-03-06T03:13:51.680Z,6.65
2024-03-06T03:16:21.923Z,6.63
2024-03-06T03:18:51.558Z,6.53
2024-03-06T03:21:18.268Z,6.53
2024-03-06T03:23:44.993Z,6.37
2024-03-06T03:26:14.674Z,6.29
2024-03-06T03:28:41.726Z,6.55
2024-03-06T03:31:10.297Z,6.44
2024-03-06T03:33:40.224Z,6.60
2024-03-06T03:36:10.271Z,6.56
2024-03-06T03:38:39.780Z,6.40
2024-03-06T03:41:18.024Z,6.44
2024-03-06T03:43:44.918Z,6.52
2024-03-06T03:46:11.653Z,6.53
2024-03-06T03:48:39.125Z,6.56
2024-03-06T03:51:06.950Z,6.45
2024-03-06T03:53:36.996Z,6.25
2024-03-06T03:56:04.958Z,6.16
2024-03-06T03:58:32.076Z,6.07
2024-03-06T04:00:58.929Z,6.01
2024-03-06T04:03:25.904Z,6.22
2024-03-06T04:05:53.008Z,6.33
2024-03-06T04:08:20.097Z,6.25
2024-03-06T04:10:46.988Z,6.24
2024-03-06T04:13:14.339Z,6.25
2024-03-06T04:15:41.257Z,6.29
2024-03-06T04:18:08.168Z,6.32
2024-03-06T04:20:35.574Z,6.30
2024-03-06T04:23:02.404Z,6.27
2024-03-06T04:25:29.148Z,6.28
2024-03-06T04:27:55.985Z,6.22
2024-03-06T04:30:22.752Z,6.14
2024-03-06T04:32:49.565Z,6.10
2024-03-06T04:35:17.094Z,6.19
2024-03-06T04:37:45.583Z,6.06
2024-03-06T04:40:13.112Z,5.99
2024-03-06T04:42:39.869Z,6.03
2024-03-06T04:45:27.045Z,6.11
2024-03-06T04:47:53.847Z,6.28
2024-03-06T04:50:20.671Z,6.19
2024-03-06T04:52:47.630Z,6.15
2024-03-06T04:55:16.351Z,6.23
2024-03-06T04:57:47.195Z,6.27
2024-03-06T05:00:14.638Z,6.38
2024-03-06T05:59:06.056Z,6.18
2024-03-06T06:01:32.909Z,6.09
2024-03-06T06:04:03.241Z,6.09
2024-03-06T06:06:31.451Z,6.05
2024-03-06T06:08:58.189Z,6.11
2024-03-06T06:11:24.919Z,6.21
2024-03-06T06:13:51.683Z,6.31
2024-03-06T06:16:18.544Z,6.33
2024-03-06T06:18:45.235Z,6.44
2024-03-06T06:21:11.983Z,6.49
2024-03-06T06:23:40.364Z,6.37
2024-03-06T06:26:07.159Z,6.45
2024-03-06T06:28:33.913Z,6.47
2024-03-06T06:31:00.788Z,6.45
2024-03-06T06:33:27.578Z,6.56
2024-03-06T06:36:00.338Z,6.52
2024-03-06T06:38:27.117Z,6.53
2024-03-06T06:40:53.997Z,6.61
2024-03-06T06:43:20.781Z,6.57
2024-03-06T06:45:47.618Z,6.50
2024-03-06T06:48:14.536Z,6.41
2024-03-06T06:50:41.407Z,6.62
2024-03-06T06:53:08.367Z,6.64
2024-03-06T06:55:35.113Z,6.57
2024-03-06T06:58:01.812Z,6.59
2024-03-06T07:00:29.807Z,6.60
2024-03-06T07:03:02.581Z,6.63
2024-03-06T07:05:29.454Z,6.60
2024-03-06T07:07:57.069Z,6.62
2024-03-06T07:10:24.850Z,6.64
2024-03-06T07:12:51.998Z,6.77
2024-03-06T07:15:19.102Z,6.75
2024-03-06T07:17:46.104Z,6.81
2024-03-06T07:20:13.191Z,6.81
2024-03-06T07:22:39.983Z,6.91
2024-03-06T07:25:06.983Z,6.90
2024-03-06T07:27:33.769Z,7.01
2024-03-06T07:30:00.512Z,6.91
2024-03-06T07:32:27.357Z,6.90
2024-03-06T07:34:54.350Z,6.89
2024-03-06T07:37:21.203Z,6.94
2024-03-06T07:39:50.472Z,7.02
2024-03-06T07:42:19.385Z,7.02
2024-03-06T07:44:46.214Z,7.17
2024-03-06T07:47:13.554Z,7.20
2024-03-06T07:49:40.379Z,7.28
2024-03-06T07:52:07.125Z,7.29
2024-03-06T07:54:34.474Z,7.33
2024-03-06T07:57:01.295Z,7.42
2024-03-06T07:59:28.442Z,7.44
2024-03-06T08:01:57.278Z,7.39
2024-03-06T08:04:24.739Z,7.44
2024-03-06T08:06:51.536Z,7.53
2024-03-06T08:09:18.370Z,7.56
2024-03-06T08:11:45.365Z,7.66
2024-03-06T08:14:12.177Z,7.70
2024-03-06T08:16:39.044Z,7.75
2024-03-06T08:19:05.788Z,7.85
2024-03-06T08:21:32.597Z,7.92
2024-03-06T08:23:59.329Z,7.88
2024-03-06T08:26:26.120Z,7.96
2024-03-06T08:28:53.871Z,7.99
2024-03-06T08:31:22.975Z,7.95
2024-03-06T08:33:50.060Z,8.01
2024-03-06T08:36:16.925Z,8.05
2024-03-06T08:38:43.794Z,8.07
2024-03-06T08:41:10.719Z,8.09
2024-03-06T08:43:37.602Z,8.00
2024-03-06T08:46:04.557Z,8.05
2024-03-06T08:48:31.584Z,8.04
2024-03-06T08:50:58.371Z,7.96
2024-03-06T08:53:25.381Z,8.02
2024-03-06T08:55:52.190Z,8.08
2024-03-06T08:58:18.946Z,8.19
2024-03-06T09:00:45.835Z,8.26
2024-03-06T09:03:13.365Z,8.34
2024-03-06T09:05:40.100Z,8.32
2024-03-06T09:08:10.454Z,8.35
2024-03-06T09:10:37.546Z,8.36
2024-03-06T09:13:04.514Z,8.34
2024-03-06T09:15:31.307Z,8.29
2024-03-06T09:17:59.037Z,8.31
2024-03-06T09:20:26.059Z,8.41
2024-03-06T09:22:55.545Z,8.40
2024-03-06T09:25:22.413Z,8.46
2024-03-06T09:27:49.715Z,8.51
2024-03-06T09:30:17.397Z,8.62
2024-03-06T09:32:45.836Z,8.63
2024-03-06T09:35:13.430Z,8.63
2024-03-06T09:37:40.205Z,8.78
2024-03-06T09:40:09.038Z,8.83
2024-03-06T09:42:35.881Z,8.96
2024-03-06T09:45:03.400Z,8.97
2024-03-06T09:47:33.978Z,9.01
2024-03-06T09:50:03.141Z,9.16
2024-03-06T09:52:30.371Z,9.08
2024-03-06T09:54:57.558Z,9.14
2024-03-06T09:57:24.400Z,9.17
2024-03-06T09:59:51.659Z,9.22
2024-03-06T10:02:40.380Z,9.29
2024-03-06T10:05:08.482Z,9.41
2024-03-06T10:07:35.346Z,9.42
2024-03-06T10:10:02.133Z,9.49
2024-03-06T10:12:30.848Z,9.45
2024-03-06T10:14:58.674Z,9.52
2024-03-06T10:17:28.980Z,9.56
2024-03-06T10:19:56.303Z,9.53
2024-03-06T10:22:25.863Z,9.52
2024-03-06T10:24:57.576Z,9.64
2024-03-06T10:27:24.394Z,9.75
2024-03-06T10:30:06.042Z,9.92
2024-03-06T10:32:33.527Z,9.96
2024-03-06T10:35:00.547Z,9.97
2024-03-06T10:37:27.713Z,10.10
2024-03-06T10:39:57.306Z,10.22
2024-03-06T10:42:25.158Z,10.33
2024-03-06T10:44:56.981Z,10.47
2024-03-06T10:47:24.689Z,10.60
2024-03-06T10:49:51.825Z,10.73
2024-03-06T10:52:20.216Z,10.94
2024-03-06T10:54:47.776Z,11.02
2024-03-06T10:57:15.703Z,11.26
2024-03-06T10:59:43.840Z,11.59
2024-03-06T11:02:11.487Z,11.87
2024-03-06T11:04:41.981Z,12.22
2024-03-06T11:07:12.531Z,12.55
2024-03-06T11:09:41.543Z,12.72
2024-03-06T11:12:08.888Z,13.01
2024-03-06T11:14:40.209Z,13.24
2024-03-06T11:17:11.410Z,13.40
2024-03-06T11:20:01.307Z,13.73
2024-03-06T11:23:01.489Z,13.98
2024-03-06T11:25:47.349Z,14.17
2024-03-06T11:28:42.445Z,14.22
2024-03-06T11:31:20.313Z,14.32
2024-03-06T11:33:48.646Z,14.42
2024-03-06T11:36:22.581Z,14.43
2024-03-06T11:38:51.859Z,14.50
2024-03-06T11:41:20.053Z,14.14
2024-03-06T11:43:49.711Z,13.84
2024-03-06T11:46:16.462Z,13.81
2024-03-06T11:48:43.274Z,14.03
2024-03-06T11:51:10.411Z,14.32
2024-03-06T11:53:42.826Z,14.70
2024-03-06T11:56:09.654Z,15.12
2024-03-06T11:58:36.468Z,15.29
2024-03-06T12:01:03.477Z,15.63
2024-03-06T12:03:30.328Z,15.82
2024-03-06T12:05:57.447Z,16.03
2024-03-06T12:08:25.165Z,16.18
2024-03-06T12:10:53.227Z,16.12
2024-03-06T12:13:22.256Z,16.11
2024-03-06T12:15:49.155Z,15.97
2024-03-06T12:18:18.714Z,15.56
2024-03-06T12:20:47.396Z,15.20
2024-03-06T12:23:23.394Z,14.72
2024-03-06T12:26:01.569Z,14.39
2024-03-06T12:28:32.393Z,14.07
2024-03-06T12:31:02.962Z,13.98
2024-03-06T12:33:29.955Z,14.13
2024-03-06T12:36:07.783Z,14.59
2024-03-06T12:38:34.882Z,14.88
2024-03-06T12:41:01.898Z,14.95
2024-03-06T12:43:30.337Z,14.69
2024-03-06T12:46:00.544Z,14.47
2024-03-06T12:48:31.460Z,14.22
2024-03-06T12:51:06.662Z,14.05
2024-03-06T12:53:36.897Z,13.84
2024-03-06T12:56:04.284Z,13.97
2024-03-06T12:58:32.662Z,14.06
2024-03-06T13:01:00.211Z,14.22
2024-03-06T13:03:27.153Z,14.20
2024-03-06T13:05:54.048Z,13.95
2024-03-06T13:08:21.028Z,13.90
2024-03-06T13:10:48.052Z,14.20
2024-03-06T13:13:14.848Z,14.55
2024-03-06T13:15:41.681Z,14.77
2024-03-06T13:18:08.755Z,15.08
2024-03-06T13:20:35.797Z,15.35
2024-03-06T13:23:02.793Z,15.54
2024-03-06T13:25:30.362Z,15.61
2024-03-06T13:27:57.193Z,15.81
2024-03-06T13:30:24.947Z,15.81
2024-03-06T13:32:51.961Z,15.96
2024-03-06T13:35:18.912Z,15.93
2024-03-06T13:37:45.905Z,15.80
2024-03-06T13:40:14.710Z,15.67
2024-03-06T13:42:42.300Z,15.50
2024-03-06T13:45:15.869Z,15.28
2024-03-06T13:47:44.338Z,15.14
2024-03-06T13:50:12.939Z,15.03
2024-03-06T13:52:40.414Z,14.95
2024-03-06T13:55:08.117Z,15.01
2024-03-06T13:57:36.116Z,14.90
2024-03-06T14:00:13.998Z,14.78
2024-03-06T14:02:41.353Z,14.66
2024-03-06T14:05:08.692Z,14.59
2024-03-06T14:07:36.097Z,14.61
2024-03-06T14:10:06.104Z,14.58
2024-03-06T14:12:33.471Z,14.69
2024-03-06T14:15:00.324Z,14.72
2024-03-06T14:17:27.185Z,14.85
2024-03-06T14:19:54.037Z,15.03
2024-03-06T14:22:20.776Z,15.26
2024-03-06T14:24:47.670Z,15.38
2024-03-06T14:27:17.405Z,15.44
2024-03-06T14:29:44.699Z,15.49
2024-03-06T14:32:12.064Z,15.57
2024-03-06T14:34:38.982Z,15.64
2024-03-06T14:37:05.825Z,15.72
2024-03-06T14:39:32.679Z,15.53
2024-03-06T14:41:59.469Z,15.25
2024-03-06T14:44:26.250Z,14.97
2024-03-06T14:46:53.381Z,14.71
2024-03-06T14:49:20.162Z,14.50
2024-03-06T14:51:46.926Z,14.31
2024-03-06T14:54:13.806Z,14.15
2024-03-06T14:56:41.185Z,14.03
2024-03-06T14:59:08.541Z,13.88
2024-03-06T15:01:35.762Z,13.76
2024-03-06T15:04:02.566Z,13.66
2024-03-06T15:06:29.376Z,13.66
2024-03-06T15:08:59.207Z,13.49
2024-03-06T15:11:26.220Z,13.35
2024-03-06T15:13:53.038Z,13.34
2024-03-06T15:16:19.864Z,13.34
2024-03-06T15:18:48.415Z,13.34
2024-03-06T15:21:15.550Z,13.28
2024-03-06T15:23:42.395Z,13.29
2024-03-06T15:26:09.231Z,13.25
2024-03-06T15:28:36.027Z,13.22
2024-03-06T15:31:05.188Z,13.17
2024-03-06T15:33:32.191Z,13.17
2024-03-06T15:36:01.306Z,13.19
2024-03-06T15:38:28.407Z,13.11
2024-03-06T15:40:55.207Z,13.07
2024-03-06T15:43:22.040Z,13.06
2024-03-06T15:45:48.785Z,13.02
2024-03-06T15:48:16.240Z,12.99
2024-03-06T15:50:43.711Z,12.98
2024-03-06T15:53:11.194Z,12.95
2024-03-06T15:55:37.955Z,12.90
2024-03-06T15:58:05.573Z,12.86
2024-03-06T16:00:32.758Z,12.85
2024-03-06T16:03:00.050Z,12.85
2024-03-06T16:05:27.676Z,12.79
2024-03-06T16:08:05.450Z,12.79
2024-03-06T16:10:33.092Z,12.80
2024-03-06T16:12:59.891Z,12.77
2024-03-06T16:15:26.747Z,12.74
2024-03-06T16:17:53.673Z,12.69
2024-03-06T16:20:21.611Z,12.68
2024-03-06T16:22:48.592Z,12.65
2024-03-06T16:25:15.632Z,12.66
2024-03-06T16:27:42.433Z,12.65
2024-03-06T16:30:10.862Z,12.65
2024-03-06T16:32:37.724Z,12.64
2024-03-06T16:35:05.600Z,12.67
2024-03-06T16:37:33.832Z,12.63
2024-03-06T16:40:01.460Z,12.58
2024-03-06T16:42:28.230Z,12.55
2024-03-06T16:44:55.623Z,12.53
2024-03-06T16:47:22.395Z,12.47
2024-03-06T16:49:49.209Z,12.45
2024-03-06T16:52:15.946Z,12.45
2024-03-06T16:54:43.303Z,12.40
2024-03-06T16:57:12.484Z,12.36
2024-03-06T16:59:39.632Z,12.40
2024-03-06T17:02:06.796Z,12.36
2024-03-06T17:04:33.680Z,12.39
2024-03-06T17:07:02.603Z,12.35
2024-03-06T17:09:29.608Z,12.31
2024-03-06T17:11:56.513Z,12.26
2024-03-06T17:14:23.445Z,12.24
2024-03-06T17:16:50.255Z,12.21
2024-03-06T17:19:17.487Z,12.23
2024-03-06T17:21:44.232Z,12.19
2024-03-06T17:24:11.724Z,12.19
2024-03-06T17:26:39.892Z,12.15
2024-03-06T17:29:09.734Z,12.18
2024-03-06T17:31:36.615Z,12.12
2024-03-06T17:34:03.739Z,12.08
2024-03-06T17:36:33.603Z,12.10
2024-03-06T17:39:01.613Z,12.07
2024-03-06T17:41:28.657Z,12.05
2024-03-06T17:43:55.377Z,12.04
2024-03-06T17:46:22.161Z,12.01
2024-03-06T17:48:49.692Z,11.98
2024-03-06T17:51:16.740Z,11.94
2024-03-06T17:53:43.770Z,11.85
2024-03-06T17:56:10.590Z,11.89
2024-03-06T17:58:37.345Z,11.89
2024-03-06T18:01:06.544Z,11.87
2024-03-06T18:03:33.727Z,11.79
2024-03-06T18:06:00.502Z,11.77
2024-03-06T18:08:28.554Z,11.75
2024-03-06T18:10:55.521Z,11.73
2024-03-06T18:13:22.250Z,11.81
2024-03-06T18:15:49.003Z,11.79
2024-03-06T18:18:16.074Z,11.72
2024-03-06T18:20:43.485Z,11.75
2024-03-06T18:23:12.842Z,11.71
2024-03-06T18:25:40.274Z,11.72
2024-03-06T18:28:07.122Z,11.66
2024-03-06T18:30:34.060Z,11.64
2024-03-06T18:33:01.291Z,11.57
2024-03-06T18:35:28.240Z,11.53
2024-03-06T18:37:55.662Z,11.51
2024-03-06T18:40:24.242Z,11.47
2024-03-06T18:42:51.075Z,11.43
2024-03-06T18:45:18.953Z,11.34
2024-03-06T18:47:47.678Z,11.31
2024-03-06T18:50:14.807Z,11.37
2024-03-06T18:52:41.679Z,11.29
2024-03-06T18:55:09.213Z,11.29
2024-03-06T18:57:35.968Z,11.28
2024-03-06T19:00:03.795Z,11.25
2024-03-06T19:02:30.598Z,11.30
2024-03-06T19:04:57.605Z,11.22
2024-03-06T19:07:24.979Z,11.18
2024-03-06T19:09:53.223Z,11.16
2024-03-06T19:12:20.077Z,11.13
2024-03-06T19:14:47.028Z,11.04
2024-03-06T19:17:17.706Z,11.04
2024-03-06T19:19:44.576Z,10.98
2024-03-06T19:22:11.431Z,10.95
2024-03-06T19:24:41.098Z,10.97
2024-03-06T19:27:07.813Z,10.92
2024-03-06T19:29:34.598Z,10.96
2024-03-06T19:32:02.171Z,10.96
2024-03-06T19:34:29.717Z,10.94
2024-03-06T19:36:57.097Z,10.94
2024-03-06T19:39:24.530Z,10.91
2024-03-06T19:41:53.909Z,10.88
2024-03-06T19:44:29.750Z,10.84
2024-03-06T19:46:56.543Z,10.78
2024-03-06T19:49:23.605Z,10.73
2024-03-06T19:51:51.427Z,10.76
2024-03-06T19:54:18.198Z,10.76
2024-03-06T19:56:45.013Z,10.75
2024-03-06T19:59:11.881Z,10.78
2024-03-06T20:01:39.229Z,10.68
2024-03-06T20:04:06.620Z,10.62
2024-03-06T20:06:33.500Z,10.64
2024-03-06T20:09:00.320Z,10.64
2024-03-06T20:11:28.552Z,10.64
2024-03-06T20:13:55.445Z,10.63
2024-03-06T20:16:22.307Z,10.58
2024-03-06T20:18:49.168Z,10.57
2024-03-06T20:21:15.986Z,10.55
2024-03-06T20:23:43.225Z,10.49
2024-03-06T20:26:10.283Z,10.51
2024-03-06T20:28:37.163Z,10.56
2024-03-06T20:31:04.263Z,10.36
2024-03-06T20:33:33.990Z,10.40
2024-03-06T20:36:00.804Z,10.26
2024-03-06T20:38:27.591Z,10.22
2024-03-06T20:40:54.422Z,10.22
2024-03-06T20:43:22.992Z,10.20
2024-03-06T20:45:51.880Z,10.16
2024-03-06T20:48:19.048Z,10.12
2024-03-06T20:50:45.909Z,10.09
2024-03-06T20:53:12.928Z,10.10
2024-03-06T20:55:39.734Z,10.04
2024-03-06T20:58:06.620Z,10.07
2024-03-06T21:00:33.667Z,10.08
2024-03-06T21:03:00.570Z,9.98
2024-03-06T21:05:27.439Z,9.97
2024-03-06T21:07:54.164Z,9.93
2024-03-06T21:10:20.960Z,9.85
2024-03-06T21:12:50.784Z,9.82
2024-03-06T21:15:17.770Z,9.87
2024-03-06T21:17:44.965Z,9.84
2024-03-06T21:20:12.776Z,9.80
2024-03-06T21:22:44.304Z,9.77
2024-03-06T21:25:12.699Z,9.77
2024-03-06T21:27:40.210Z,9.69
2024-03-06T21:30:08.432Z,9.61
2024-03-06T21:32:35.998Z,9.65
2024-03-06T21:35:03.066Z,9.63
2024-03-06T21:37:29.906Z,9.60
2024-03-06T21:39:56.682Z,9.57
2024-03-06T21:42:23.580Z,9.60
2024-03-06T21:44:51.936Z,9.46
2024-03-06T21:47:18.906Z,9.44
2024-03-06T21:49:45.853Z,9.37
2024-03-06T21:52:13.557Z,9.40
2024-03-06T21:54:40.518Z,9.39
2024-03-06T21:57:12.590Z,9.36
2024-03-06T21:59:40.642Z,9.36
2024-03-06T22:02:08.434Z,9.36
2024-03-06T22:04:35.325Z,9.39
2024-03-06T22:07:02.059Z,9.36
2024-03-06T22:09:28.865Z,9.36
2024-03-06T22:11:55.664Z,9.28
2024-03-06T22:14:22.563Z,9.27
2024-03-06T22:16:49.355Z,9.34
2024-03-06T22:19:16.139Z,9.29
2024-03-06T22:21:42.938Z,9.26
2024-03-06T22:24:09.779Z,9.26
2024-03-06T22:26:36.677Z,9.13
2024-03-06T22:29:04.938Z,9.06
2024-03-06T22:31:31.704Z,8.98
2024-03-06T22:33:58.527Z,8.94
2024-03-06T22:36:27.127Z,8.94
2024-03-06T22:38:54.484Z,8.88
2024-03-06T22:41:22.816Z,8.87
2024-03-06T22:43:50.139Z,8.88
2024-03-06T22:46:17.094Z,8.91
2024-03-06T22:48:44.106Z,8.90
2024-03-06T22:51:12.328Z,9.02
2024-03-06T22:53:39.322Z,9.02
2024-03-06T22:56:06.906Z,8.93
2024-03-06T22:58:33.662Z,8.82
2024-03-06T23:01:00.493Z,8.74
2024-03-06T23:03:27.650Z,8.64
2024-03-06T23:05:54.570Z,8.57
2024-03-06T23:08:21.442Z,8.78
2024-03-06T23:10:48.218Z,8.68
2024-03-06T23:13:18.824Z,8.63
2024-03-06T23:15:49.783Z,8.61
2024-03-06T23:18:16.660Z,8.58
2024-03-06T23:20:43.513Z,8.55
2024-03-06T23:23:10.672Z,8.51
2024-03-06T23:25:37.448Z,8.52
2024-03-06T23:28:04.450Z,8.52
2024-03-06T23:30:31.244Z,8.51
2024-03-06T23:32:58.078Z,8.51
2024-03-06T23:35:24.993Z,8.52
2024-03-06T23:37:52.475Z,8.45
2024-03-06T23:40:19.651Z,8.44
2024-03-06T23:42:48.017Z,8.40
2024-03-06T23:45:16.281Z,8.42
2024-03-06T23:47:44.982Z,8.42
2024-03-06T23:50:12.300Z,8.41
2024-03-06T23:52:39.210Z,8.39
2024-03-06T23:55:11.527Z,8.39
2024-03-06T23:57:38.270Z,8.34
